sensor_id;sensor_type;location;lat;lon;timestamp;pressure;altitude;pressure_sealevel;temperature;humidity
80620;BME280;69979;53.682;-2.690;2024-02-21T00:02:00;101186.25;;;10.92;62.51
80620;BME280;69979;53.682;-2.690;2024-02-21T00:04:26;101190.64;;;10.67;62.75
80620;BME280;69979;53.682;-2.690;2024-02-21T00:06:51;101183.72;;;10.19;63.47
80620;BME280;69979;53.682;-2.690;2024-02-21T00:09:16;101183.49;;;10.61;63.89
80620;BME280;69979;53.682;-2.690;2024-02-21T00:11:42;101184.75;;;10.72;63.72
80620;BME280;69979;53.682;-2.690;2024-02-21T00:14:07;101175.80;;;10.76;63.59
80620;BME280;69979;53.682;-2.690;2024-02-21T00:16:32;101164.31;;;11.12;63.30
80620;BME280;69979;53.682;-2.690;2024-02-21T00:18:58;101163.17;;;11.34;62.39
80620;BME280;69979;53.682;-2.690;2024-02-21T00:21:23;101162.41;;;11.39;62.01
80620;BME280;69979;53.682;-2.690;2024-02-21T00:23:49;101157.50;;;11.01;62.16
80620;BME280;69979;53.682;-2.690;2024-02-21T00:26:14;101154.01;;;9.81;64.78
80620;BME280;69979;53.682;-2.690;2024-02-21T00:28:40;101149.53;;;9.65;65.65
80620;BME280;69979;53.682;-2.690;2024-02-21T00:31:05;101137.10;;;8.78;68.17
80620;BME280;69979;53.682;-2.690;2024-02-21T00:33:31;101134.67;;;8.64;68.61
80620;BME280;69979;53.682;-2.690;2024-02-21T00:35:57;101132.45;;;8.11;70.18
80620;BME280;69979;53.682;-2.690;2024-02-21T00:38:22;101115.62;;;8.03;70.77
80620;BME280;69979;53.682;-2.690;2024-02-21T00:40:47;101092.68;;;9.82;67.49
80620;BME280;69979;53.682;-2.690;2024-02-21T00:43:13;101086.18;;;10.14;65.06
80620;BME280;69979;53.682;-2.690;2024-02-21T00:45:38;101090.09;;;9.16;67.79
80620;BME280;69979;53.682;-2.690;2024-02-21T00:48:04;101088.81;;;8.47;70.33
80620;BME280;69979;53.682;-2.690;2024-02-21T00:50:29;101081.62;;;8.13;71.99
80620;BME280;69979;53.682;-2.690;2024-02-21T00:52:54;101076.64;;;7.99;72.22
80620;BME280;69979;53.682;-2.690;2024-02-21T00:55:19;101070.11;;;8.65;71.47
80620;BME280;69979;53.682;-2.690;2024-02-21T00:57:45;101070.13;;;9.33;68.92
80620;BME280;69979;53.682;-2.690;2024-02-21T01:00:11;101061.45;;;9.04;69.65
80620;BME280;69979;53.682;-2.690;2024-02-21T01:02:35;101051.73;;;8.96;69.16
80620;BME280;69979;53.682;-2.690;2024-02-21T01:05:01;101052.50;;;9.47;68.77
80620;BME280;69979;53.682;-2.690;2024-02-21T01:07:25;101047.09;;;8.63;72.12
80620;BME280;69979;53.682;-2.690;2024-02-21T01:09:51;101045.57;;;8.04;72.62
80620;BME280;69979;53.682;-2.690;2024-02-21T01:12:16;101040.36;;;8.64;71.78
80620;BME280;69979;53.682;-2.690;2024-02-21T01:14:42;101030.40;;;8.29;73.09
80620;BME280;69979;53.682;-2.690;2024-02-21T01:17:07;101016.20;;;8.18;73.22
80620;BME280;69979;53.682;-2.690;2024-02-21T01:19:32;101001.37;;;9.26;70.80
80620;BME280;69979;53.682;-2.690;2024-02-21T01:21:58;100985.86;;;8.14;72.40
80620;BME280;69979;53.682;-2.690;2024-02-21T01:24:22;100967.94;;;7.03;76.21
80620;BME280;69979;53.682;-2.690;2024-02-21T01:26:48;100970.24;;;7.26;76.51
80620;BME280;69979;53.682;-2.690;2024-02-21T01:29:13;100984.57;;;6.96;79.88
80620;BME280;69979;53.682;-2.690;2024-02-21T01:31:38;100985.92;;;6.49;82.11
80620;BME280;69979;53.682;-2.690;2024-02-21T01:34:04;100983.21;;;6.42;82.99
80620;BME280;69979;53.682;-2.690;2024-02-21T01:36:29;100976.14;;;5.62;85.29
80620;BME280;69979;53.682;-2.690;2024-02-21T01:38:55;100971.42;;;5.76;85.95
80620;BME280;69979;53.682;-2.690;2024-02-21T01:41:20;100970.90;;;5.85;86.51
80620;BME280;69979;53.682;-2.690;2024-02-21T01:43:45;100966.71;;;5.84;86.29
80620;BME280;69979;53.682;-2.690;2024-02-21T01:46:11;100958.96;;;5.51;88.44
80620;BME280;69979;53.682;-2.690;2024-02-21T01:48:36;100952.37;;;5.28;90.90
80620;BME280;69979;53.682;-2.690;2024-02-21T01:51:04;100950.40;;;5.75;89.95
80620;BME280;69979;53.682;-2.690;2024-02-21T01:53:30;100947.14;;;5.33;90.32
80620;BME280;69979;53.682;-2.690;2024-02-21T01:55:53;100942.82;;;5.47;91.77
80620;BME280;69979;53.682;-2.690;2024-02-21T01:58:19;100931.77;;;5.19;91.92
80620;BME280;69979;53.682;-2.690;2024-02-21T02:00:45;100927.79;;;4.89;93.53
80620;BME280;69979;53.682;-2.690;2024-02-21T02:03:10;100922.39;;;5.37;91.84
80620;BME280;69979;53.682;-2.690;2024-02-21T02:05:34;100910.43;;;5.85;91.75
80620;BME280;69979;53.682;-2.690;2024-02-21T02:07:59;100892.58;;;5.06;93.04
80620;BME280;69979;53.682;-2.690;2024-02-21T02:10:25;100882.20;;;5.05;94.53
80620;BME280;69979;53.682;-2.690;2024-02-21T02:12:50;100883.41;;;5.28;93.94
80620;BME280;69979;53.682;-2.690;2024-02-21T02:15:16;100887.27;;;5.57;94.20
80620;BME280;69979;53.682;-2.690;2024-02-21T02:17:42;100880.27;;;5.27;93.14
80620;BME280;69979;53.682;-2.690;2024-02-21T02:20:08;100868.09;;;5.41;93.21
80620;BME280;69979;53.682;-2.690;2024-02-21T02:22:33;100861.01;;;5.40;93.92
80620;BME280;69979;53.682;-2.690;2024-02-21T02:24:58;100844.38;;;5.99;92.49
80620;BME280;69979;53.682;-2.690;2024-02-21T02:27:24;100837.76;;;5.34;93.82
80620;BME280;69979;53.682;-2.690;2024-02-21T02:29:50;100839.72;;;5.67;92.71
80620;BME280;69979;53.682;-2.690;2024-02-21T02:32:15;100827.57;;;5.28;95.24
80620;BME280;69979;53.682;-2.690;2024-02-21T02:34:40;100815.65;;;5.68;94.08
80620;BME280;69979;53.682;-2.690;2024-02-21T02:37:06;100805.37;;;5.58;95.66
80620;BME280;69979;53.682;-2.690;2024-02-21T02:39:32;100797.22;;;5.13;95.28
80620;BME280;69979;53.682;-2.690;2024-02-21T02:41:58;100786.54;;;5.57;97.00
80620;BME280;69979;53.682;-2.690;2024-02-21T02:44:23;100786.21;;;5.07;97.61
80620;BME280;69979;53.682;-2.690;2024-02-21T02:46:48;100770.96;;;5.40;97.03
80620;BME280;69979;53.682;-2.690;2024-02-21T02:49:14;100749.85;;;5.70;96.12
80620;BME280;69979;53.682;-2.690;2024-02-21T02:51:41;100743.00;;;6.19;94.45
80620;BME280;69979;53.682;-2.690;2024-02-21T02:54:05;100733.25;;;6.00;94.71
80620;BME280;69979;53.682;-2.690;2024-02-21T02:56:31;100727.22;;;5.20;96.77
80620;BME280;69979;53.682;-2.690;2024-02-21T02:58:57;100718.84;;;5.06;98.29
80620;BME280;69979;53.682;-2.690;2024-02-21T03:01:22;100713.14;;;5.32;97.74
80620;BME280;69979;53.682;-2.690;2024-02-21T03:03:48;100706.30;;;5.34;97.73
80620;BME280;69979;53.682;-2.690;2024-02-21T03:06:14;100696.89;;;5.47;97.74
80620;BME280;69979;53.682;-2.690;2024-02-21T03:08:39;100685.51;;;5.40;95.39
80620;BME280;69979;53.682;-2.690;2024-02-21T03:11:04;100691.93;;;5.09;96.72
80620;BME280;69979;53.682;-2.690;2024-02-21T03:13:30;100675.90;;;5.14;96.24
80620;BME280;69979;53.682;-2.690;2024-02-21T03:15:56;100658.21;;;5.88;95.98
80620;BME280;69979;53.682;-2.690;2024-02-21T03:18:21;100653.17;;;5.47;96.64
80620;BME280;69979;53.682;-2.690;2024-02-21T03:20:47;100633.94;;;5.86;94.59
80620;BME280;69979;53.682;-2.690;2024-02-21T03:23:13;100627.14;;;6.07;94.70
80620;BME280;69979;53.682;-2.690;2024-02-21T03:25:38;100622.16;;;6.19;94.81
80620;BME280;69979;53.682;-2.690;2024-02-21T03:28:04;100609.27;;;5.36;94.67
80620;BME280;69979;53.682;-2.690;2024-02-21T03:30:30;100601.11;;;5.43;96.32
80620;BME280;69979;53.682;-2.690;2024-02-21T03:32:55;100588.81;;;5.30;97.57
80620;BME280;69979;53.682;-2.690;2024-02-21T03:35:21;100582.78;;;5.29;97.96
80620;BME280;69979;53.682;-2.690;2024-02-21T03:37:46;100580.79;;;5.48;98.40
80620;BME280;69979;53.682;-2.690;2024-02-21T03:40:12;100578.32;;;5.52;97.09
80620;BME280;69979;53.682;-2.690;2024-02-21T03:42:38;100563.42;;;5.76;95.66
80620;BME280;69979;53.682;-2.690;2024-02-21T03:45:04;100552.49;;;5.16;98.09
80620;BME280;69979;53.682;-2.690;2024-02-21T03:47:29;100555.06;;;5.56;96.48
80620;BME280;69979;53.682;-2.690;2024-02-21T03:49:55;100548.64;;;5.34;96.40
80620;BME280;69979;53.682;-2.690;2024-02-21T03:52:20;100540.67;;;5.32;98.21
80620;BME280;69979;53.682;-2.690;2024-02-21T03:54:46;100537.38;;;5.40;98.05
80620;BME280;69979;53.682;-2.690;2024-02-21T03:57:11;100526.95;;;5.47;98.72
80620;BME280;69979;53.682;-2.690;2024-02-21T03:59:37;100523.71;;;5.67;97.35
80620;BME280;69979;53.682;-2.690;2024-02-21T04:02:02;100521.99;;;5.07;98.44
80620;BME280;69979;53.682;-2.690;2024-02-21T04:04:28;100515.58;;;5.36;98.28
80620;BME280;69979;53.682;-2.690;2024-02-21T04:06:54;100506.14;;;5.29;98.82
80620;BME280;69979;53.682;-2.690;2024-02-21T04:09:19;100498.57;;;5.55;97.01
80620;BME280;69979;53.682;-2.690;2024-02-21T04:11:45;100487.29;;;6.43;94.66
80620;BME280;69979;53.682;-2.690;2024-02-21T04:14:10;100482.59;;;5.92;93.49
80620;BME280;69979;53.682;-2.690;2024-02-21T04:16:36;100475.93;;;5.86;95.72
80620;BME280;69979;53.682;-2.690;2024-02-21T04:19:02;100476.66;;;5.35;94.80
80620;BME280;69979;53.682;-2.690;2024-02-21T04:21:27;100463.99;;;5.43;96.79
80620;BME280;69979;53.682;-2.690;2024-02-21T04:23:53;100459.61;;;5.61;96.54
80620;BME280;69979;53.682;-2.690;2024-02-21T04:26:19;100451.40;;;5.42;96.13
80620;BME280;69979;53.682;-2.690;2024-02-21T04:28:45;100452.74;;;5.44;97.80
80620;BME280;69979;53.682;-2.690;2024-02-21T04:31:10;100457.64;;;5.54;96.64
80620;BME280;69979;53.682;-2.690;2024-02-21T04:33:36;100438.34;;;5.41;97.29
80620;BME280;69979;53.682;-2.690;2024-02-21T04:36:02;100422.85;;;5.33;98.73
80620;BME280;69979;53.682;-2.690;2024-02-21T04:38:27;100408.24;;;5.19;97.46
80620;BME280;69979;53.682;-2.690;2024-02-21T04:40:52;100401.17;;;5.64;97.67
80620;BME280;69979;53.682;-2.690;2024-02-21T04:43:18;100383.56;;;5.91;96.27
80620;BME280;69979;53.682;-2.690;2024-02-21T04:45:44;100378.92;;;5.72;95.40
80620;BME280;69979;53.682;-2.690;2024-02-21T04:48:09;100370.35;;;5.89;95.86
80620;BME280;69979;53.682;-2.690;2024-02-21T04:50:35;100358.30;;;5.71;95.10
80620;BME280;69979;53.682;-2.690;2024-02-21T04:53:00;100351.75;;;5.30;96.15
80620;BME280;69979;53.682;-2.690;2024-02-21T04:55:26;100344.16;;;5.66;95.65
80620;BME280;69979;53.682;-2.690;2024-02-21T04:57:51;100341.13;;;5.80;95.80
80620;BME280;69979;53.682;-2.690;2024-02-21T05:00:18;100332.30;;;5.86;95.17
80620;BME280;69979;53.682;-2.690;2024-02-21T05:02:43;100324.01;;;6.25;92.83
80620;BME280;69979;53.682;-2.690;2024-02-21T05:05:08;100311.82;;;5.41;95.61
80620;BME280;69979;53.682;-2.690;2024-02-21T05:07:35;100300.12;;;5.44;96.53
80620;BME280;69979;53.682;-2.690;2024-02-21T05:10:00;100286.24;;;5.50;95.19
80620;BME280;69979;53.682;-2.690;2024-02-21T05:12:25;100276.79;;;5.07;98.35
80620;BME280;69979;53.682;-2.690;2024-02-21T05:14:51;100259.37;;;4.77;99.39
80620;BME280;69979;53.682;-2.690;2024-02-21T05:17:17;100247.75;;;5.07;99.62
80620;BME280;69979;53.682;-2.690;2024-02-21T05:19:42;100237.88;;;4.84;100.00
80620;BME280;69979;53.682;-2.690;2024-02-21T05:22:08;100231.55;;;5.56;97.63
80620;BME280;69979;53.682;-2.690;2024-02-21T05:24:34;100234.66;;;5.71;96.35
80620;BME280;69979;53.682;-2.690;2024-02-21T05:26:59;100239.67;;;5.56;96.35
80620;BME280;69979;53.682;-2.690;2024-02-21T05:29:24;100236.26;;;5.60;95.87
80620;BME280;69979;53.682;-2.690;2024-02-21T05:31:56;100210.10;;;5.34;96.88
80620;BME280;69979;53.682;-2.690;2024-02-21T05:34:16;100206.13;;;5.68;96.81
80620;BME280;69979;53.682;-2.690;2024-02-21T05:36:41;100206.79;;;5.10;98.86
80620;BME280;69979;53.682;-2.690;2024-02-21T05:39:07;100194.34;;;5.41;98.39
80620;BME280;69979;53.682;-2.690;2024-02-21T05:41:33;100192.72;;;5.00;98.85
80620;BME280;69979;53.682;-2.690;2024-02-21T05:43:58;100196.48;;;5.06;99.94
80620;BME280;69979;53.682;-2.690;2024-02-21T05:46:24;100181.28;;;5.12;99.20
80620;BME280;69979;53.682;-2.690;2024-02-21T05:48:49;100163.77;;;4.90;98.62
80620;BME280;69979;53.682;-2.690;2024-02-21T05:51:15;100149.90;;;5.02;100.00
80620;BME280;69979;53.682;-2.690;2024-02-21T05:53:41;100141.51;;;5.01;99.04
80620;BME280;69979;53.682;-2.690;2024-02-21T05:56:10;100143.68;;;5.19;98.28
80620;BME280;69979;53.682;-2.690;2024-02-21T05:58:32;100140.00;;;5.07;98.64
80620;BME280;69979;53.682;-2.690;2024-02-21T06:00:58;100134.58;;;5.19;98.39
80620;BME280;69979;53.682;-2.690;2024-02-21T06:03:23;100133.73;;;5.09;97.67
80620;BME280;69979;53.682;-2.690;2024-02-21T06:05:49;100131.62;;;4.84;99.61
80620;BME280;69979;53.682;-2.690;2024-02-21T06:08:15;100118.82;;;5.40;99.14
80620;BME280;69979;53.682;-2.690;2024-02-21T06:10:40;100113.20;;;5.49;97.35
80620;BME280;69979;53.682;-2.690;2024-02-21T06:13:06;100094.14;;;5.55;97.48
80620;BME280;69979;53.682;-2.690;2024-02-21T06:15:32;100084.69;;;5.48;97.12
80620;BME280;69979;53.682;-2.690;2024-02-21T06:17:58;100070.09;;;5.06;97.67
80620;BME280;69979;53.682;-2.690;2024-02-21T06:20:23;100063.97;;;4.40;100.00
80620;BME280;69979;53.682;-2.690;2024-02-21T06:22:49;100050.85;;;5.55;97.50
80620;BME280;69979;53.682;-2.690;2024-02-21T06:25:14;100032.36;;;4.98;99.15
80620;BME280;69979;53.682;-2.690;2024-02-21T06:27:40;100018.47;;;4.81;99.81
80620;BME280;69979;53.682;-2.690;2024-02-21T06:30:07;100005.34;;;4.66;100.00
80620;BME280;69979;53.682;-2.690;2024-02-21T06:32:31;100003.92;;;5.05;98.81
80620;BME280;69979;53.682;-2.690;2024-02-21T06:34:57;99992.02;;;5.11;99.38
80620;BME280;69979;53.682;-2.690;2024-02-21T06:37:23;99987.10;;;4.67;100.00
80620;BME280;69979;53.682;-2.690;2024-02-21T06:39:48;99973.61;;;4.89;100.00
80620;BME280;69979;53.682;-2.690;2024-02-21T06:42:14;99957.90;;;4.72;99.90
80620;BME280;69979;53.682;-2.690;2024-02-21T06:44:40;99966.10;;;4.68;100.00
80620;BME280;69979;53.682;-2.690;2024-02-21T06:47:05;99963.36;;;4.58;100.00
80620;BME280;69979;53.682;-2.690;2024-02-21T06:49:31;99949.57;;;5.07;98.12
80620;BME280;69979;53.682;-2.690;2024-02-21T06:51:57;99935.21;;;5.15;99.02
80620;BME280;69979;53.682;-2.690;2024-02-21T06:54:22;99933.16;;;4.90;99.36
80620;BME280;69979;53.682;-2.690;2024-02-21T06:56:48;99923.18;;;4.89;99.52
80620;BME280;69979;53.682;-2.690;2024-02-21T06:59:14;99908.60;;;5.04;98.76
80620;BME280;69979;53.682;-2.690;2024-02-21T07:01:39;99902.99;;;5.23;97.76
80620;BME280;69979;53.682;-2.690;2024-02-21T07:04:05;99899.37;;;4.57;99.86
80620;BME280;69979;53.682;-2.690;2024-02-21T07:06:31;99901.28;;;4.91;100.00
80620;BME280;69979;53.682;-2.690;2024-02-21T07:08:56;99900.82;;;4.58;100.00
80620;BME280;69979;53.682;-2.690;2024-02-21T07:11:22;99889.25;;;4.75;100.00
80620;BME280;69979;53.682;-2.690;2024-02-21T07:13:48;99869.14;;;4.43;99.95
80620;BME280;69979;53.682;-2.690;2024-02-21T07:16:13;99863.40;;;4.99;99.79
80620;BME280;69979;53.682;-2.690;2024-02-21T07:18:39;99842.32;;;5.00;98.61
80620;BME280;69979;53.682;-2.690;2024-02-21T07:21:05;99837.32;;;4.93;98.79
80620;BME280;69979;53.682;-2.690;2024-02-21T07:23:30;99861.73;;;4.83;100.00
80620;BME280;69979;53.682;-2.690;2024-02-21T07:25:56;99840.86;;;4.59;100.00
80620;BME280;69979;53.682;-2.690;2024-02-21T07:28:21;99824.24;;;5.00;98.97
80620;BME280;69979;53.682;-2.690;2024-02-21T07:30:47;99816.61;;;4.70;99.29
80620;BME280;69979;53.682;-2.690;2024-02-21T07:33:12;99805.90;;;4.76;98.82
80620;BME280;69979;53.682;-2.690;2024-02-21T07:35:38;99806.37;;;5.20;97.54
80620;BME280;69979;53.682;-2.690;2024-02-21T07:38:04;99784.97;;;5.42;95.90
80620;BME280;69979;53.682;-2.690;2024-02-21T07:40:30;99777.33;;;5.43;96.66
80620;BME280;69979;53.682;-2.690;2024-02-21T07:42:55;99767.50;;;4.91;97.12
80620;BME280;69979;53.682;-2.690;2024-02-21T07:45:21;99761.07;;;4.94;98.11
80620;BME280;69979;53.682;-2.690;2024-02-21T07:47:46;99744.55;;;4.43;99.03
80620;BME280;69979;53.682;-2.690;2024-02-21T07:50:12;99743.37;;;4.96;96.33
80620;BME280;69979;53.682;-2.690;2024-02-21T07:52:38;99732.69;;;4.94;97.30
80620;BME280;69979;53.682;-2.690;2024-02-21T07:55:04;99727.00;;;4.39;98.77
80620;BME280;69979;53.682;-2.690;2024-02-21T07:57:29;99723.76;;;4.93;97.61
80620;BME280;69979;53.682;-2.690;2024-02-21T07:59:55;99720.60;;;4.96;97.89
80620;BME280;69979;53.682;-2.690;2024-02-21T08:02:20;99704.27;;;5.08;97.41
80620;BME280;69979;53.682;-2.690;2024-02-21T08:04:46;99686.62;;;4.59;97.06
80620;BME280;69979;53.682;-2.690;2024-02-21T08:07:12;99684.40;;;4.50;99.40
80620;BME280;69979;53.682;-2.690;2024-02-21T08:09:39;99683.81;;;4.14;99.12
80620;BME280;69979;53.682;-2.690;2024-02-21T08:12:04;99689.81;;;4.38;98.39
80620;BME280;69979;53.682;-2.690;2024-02-21T08:14:29;99670.56;;;4.53;100.00
80620;BME280;69979;53.682;-2.690;2024-02-21T08:16:54;99662.33;;;4.28;100.00
80620;BME280;69979;53.682;-2.690;2024-02-21T08:19:20;99663.21;;;4.46;99.55
80620;BME280;69979;53.682;-2.690;2024-02-21T08:21:46;99645.23;;;4.51;99.40
80620;BME280;69979;53.682;-2.690;2024-02-21T08:24:12;99628.56;;;4.66;98.23
80620;BME280;69979;53.682;-2.690;2024-02-21T08:26:40;99624.12;;;4.52;98.01
80620;BME280;69979;53.682;-2.690;2024-02-21T08:29:03;99617.03;;;4.23;99.31
80620;BME280;69979;53.682;-2.690;2024-02-21T08:31:29;99615.61;;;4.59;98.74
80620;BME280;69979;53.682;-2.690;2024-02-21T08:33:54;99606.46;;;4.80;97.84
80620;BME280;69979;53.682;-2.690;2024-02-21T08:36:20;99602.85;;;4.51;96.88
80620;BME280;69979;53.682;-2.690;2024-02-21T08:38:46;99587.58;;;4.85;97.72
80620;BME280;69979;53.682;-2.690;2024-02-21T08:41:11;99568.87;;;4.29;98.69
80620;BME280;69979;53.682;-2.690;2024-02-21T08:43:37;99550.86;;;4.08;99.70
80620;BME280;69979;53.682;-2.690;2024-02-21T08:46:03;99551.17;;;4.46;99.52
80620;BME280;69979;53.682;-2.690;2024-02-21T08:48:28;99544.35;;;4.42;97.55
80620;BME280;69979;53.682;-2.690;2024-02-21T08:50:54;99554.65;;;4.72;95.90
80620;BME280;69979;53.682;-2.690;2024-02-21T08:53:20;99549.32;;;4.29;98.55
80620;BME280;69979;53.682;-2.690;2024-02-21T08:55:46;99538.76;;;4.72;97.84
80620;BME280;69979;53.682;-2.690;2024-02-21T08:58:11;99535.25;;;4.50;99.36
80620;BME280;69979;53.682;-2.690;2024-02-21T09:00:37;99530.32;;;4.05;99.70
80620;BME280;69979;53.682;-2.690;2024-02-21T09:03:03;99519.94;;;4.36;97.86
80620;BME280;69979;53.682;-2.690;2024-02-21T09:05:28;99499.00;;;4.60;96.97
80620;BME280;69979;53.682;-2.690;2024-02-21T09:07:54;99485.43;;;4.16;99.15
80620;BME280;69979;53.682;-2.690;2024-02-21T09:10:20;99464.09;;;4.37;99.81
80620;BME280;69979;53.682;-2.690;2024-02-21T09:12:45;99456.48;;;4.45;98.64
80620;BME280;69979;53.682;-2.690;2024-02-21T09:15:11;99452.38;;;4.51;98.70
80620;BME280;69979;53.682;-2.690;2024-02-21T09:17:36;99446.59;;;4.00;99.45
80620;BME280;69979;53.682;-2.690;2024-02-21T09:20:03;99448.07;;;4.52;97.99
80620;BME280;69979;53.682;-2.690;2024-02-21T09:22:28;99442.62;;;4.34;99.49
80620;BME280;69979;53.682;-2.690;2024-02-21T09:24:54;99438.58;;;4.55;98.09
80620;BME280;69979;53.682;-2.690;2024-02-21T09:27:19;99421.06;;;4.59;97.43
80620;BME280;69979;53.682;-2.690;2024-02-21T09:29:45;99411.71;;;4.98;96.92
80620;BME280;69979;53.682;-2.690;2024-02-21T09:32:11;99408.53;;;4.54;98.86
80620;BME280;69979;53.682;-2.690;2024-02-21T09:34:36;99403.37;;;4.43;98.85
80620;BME280;69979;53.682;-2.690;2024-02-21T09:37:02;99381.29;;;4.56;97.97
80620;BME280;69979;53.682;-2.690;2024-02-21T09:39:28;99359.11;;;4.46;97.95
80620;BME280;69979;53.682;-2.690;2024-02-21T09:41:57;99354.54;;;4.66;98.50
80620;BME280;69979;53.682;-2.690;2024-02-21T09:44:19;99341.94;;;4.37;99.44
80620;BME280;69979;53.682;-2.690;2024-02-21T09:46:52;99335.13;;;4.42;99.15
80620;BME280;69979;53.682;-2.690;2024-02-21T09:49:19;99333.24;;;4.13;100.00
80620;BME280;69979;53.682;-2.690;2024-02-21T09:51:36;99329.32;;;4.31;100.00
80620;BME280;69979;53.682;-2.690;2024-02-21T09:54:03;99322.11;;;4.97;99.03
80620;BME280;69979;53.682;-2.690;2024-02-21T09:56:27;99309.33;;;4.96;97.15
80620;BME280;69979;53.682;-2.690;2024-02-21T09:58:53;99302.93;;;4.34;100.00
80620;BME280;69979;53.682;-2.690;2024-02-21T10:01:18;99296.92;;;4.47;100.00
80620;BME280;69979;53.682;-2.690;2024-02-21T10:03:44;99290.97;;;4.88;99.24
80620;BME280;69979;53.682;-2.690;2024-02-21T10:06:10;99286.85;;;5.48;96.03
80620;BME280;69979;53.682;-2.690;2024-02-21T10:08:35;99272.40;;;5.10;97.25
80620;BME280;69979;53.682;-2.690;2024-02-21T10:11:01;99258.93;;;5.32;96.54
80620;BME280;69979;53.682;-2.690;2024-02-21T10:13:28;99251.26;;;4.67;98.68
80620;BME280;69979;53.682;-2.690;2024-02-21T10:16:01;99251.87;;;4.96;98.54
80620;BME280;69979;53.682;-2.690;2024-02-21T10:18:18;99238.85;;;5.10;97.44
80620;BME280;69979;53.682;-2.690;2024-02-21T10:20:43;99247.82;;;5.07;97.50
80620;BME280;69979;53.682;-2.690;2024-02-21T10:23:09;99229.29;;;5.09;97.36
80620;BME280;69979;53.682;-2.690;2024-02-21T10:25:35;99223.12;;;5.06;97.83
80620;BME280;69979;53.682;-2.690;2024-02-21T10:28:01;99223.16;;;4.99;98.41
80620;BME280;69979;53.682;-2.690;2024-02-21T10:30:26;99211.68;;;4.96;98.22
80620;BME280;69979;53.682;-2.690;2024-02-21T10:32:53;99214.52;;;5.19;97.91
80620;BME280;69979;53.682;-2.690;2024-02-21T10:35:26;99206.56;;;4.86;99.85
80620;BME280;69979;53.682;-2.690;2024-02-21T10:37:43;99203.03;;;5.21;99.07
80620;BME280;69979;53.682;-2.690;2024-02-21T10:40:09;99196.75;;;4.93;99.37
80620;BME280;69979;53.682;-2.690;2024-02-21T10:42:38;99188.62;;;4.90;99.55
80620;BME280;69979;53.682;-2.690;2024-02-21T10:45:01;99192.91;;;5.34;98.52
80620;BME280;69979;53.682;-2.690;2024-02-21T10:47:27;99186.56;;;5.20;99.50
80620;BME280;69979;53.682;-2.690;2024-02-21T10:49:57;99176.60;;;5.28;98.76
80620;BME280;69979;53.682;-2.690;2024-02-21T10:52:29;99172.15;;;5.55;98.54
80620;BME280;69979;53.682;-2.690;2024-02-21T10:54:45;99169.39;;;5.58;97.89
80620;BME280;69979;53.682;-2.690;2024-02-21T10:57:09;99164.48;;;5.38;98.28
80620;BME280;69979;53.682;-2.690;2024-02-21T10:59:36;99163.80;;;5.86;96.61
80620;BME280;69979;53.682;-2.690;2024-02-21T11:02:00;99152.56;;;5.75;96.32
80620;BME280;69979;53.682;-2.690;2024-02-21T11:04:26;99147.79;;;5.60;96.31
80620;BME280;69979;53.682;-2.690;2024-02-21T11:06:51;99131.94;;;5.65;97.28
80620;BME280;69979;53.682;-2.690;2024-02-21T11:09:17;99134.80;;;5.71;98.34
80620;BME280;69979;53.682;-2.690;2024-02-21T11:11:44;99131.18;;;5.81;96.68
80620;BME280;69979;53.682;-2.690;2024-02-21T11:14:09;99125.72;;;5.59;98.06
80620;BME280;69979;53.682;-2.690;2024-02-21T11:16:38;99123.77;;;6.26;95.81
80620;BME280;69979;53.682;-2.690;2024-02-21T11:19:06;99120.59;;;5.84;97.55
80620;BME280;69979;53.682;-2.690;2024-02-21T11:21:32;99116.89;;;5.96;96.98
80620;BME280;69979;53.682;-2.690;2024-02-21T11:23:55;99119.17;;;5.74;97.80
80620;BME280;69979;53.682;-2.690;2024-02-21T11:26:19;99115.28;;;5.82;97.82
80620;BME280;69979;53.682;-2.690;2024-02-21T11:28:42;99095.12;;;6.68;94.76
80620;BME280;69979;53.682;-2.690;2024-02-21T11:31:09;99099.69;;;6.04;96.60
80620;BME280;69979;53.682;-2.690;2024-02-21T11:33:33;99099.26;;;5.96;98.10
80620;BME280;69979;53.682;-2.690;2024-02-21T11:35:59;99084.98;;;6.47;96.92
80620;BME280;69979;53.682;-2.690;2024-02-21T11:38:24;99074.89;;;6.10;97.35
80620;BME280;69979;53.682;-2.690;2024-02-21T11:40:50;99074.26;;;5.85;98.58
80620;BME280;69979;53.682;-2.690;2024-02-21T11:43:16;99074.04;;;5.90;98.83
80620;BME280;69979;53.682;-2.690;2024-02-21T11:45:41;99078.55;;;5.81;99.03
80620;BME280;69979;53.682;-2.690;2024-02-21T11:48:07;99067.90;;;6.27;98.13
80620;BME280;69979;53.682;-2.690;2024-02-21T11:50:35;99078.14;;;5.99;98.37
80620;BME280;69979;53.682;-2.690;2024-02-21T11:52:59;99075.66;;;6.44;97.75
80620;BME280;69979;53.682;-2.690;2024-02-21T11:55:24;99067.83;;;6.44;96.23
80620;BME280;69979;53.682;-2.690;2024-02-21T11:57:49;99068.32;;;6.43;95.94
80620;BME280;69979;53.682;-2.690;2024-02-21T12:00:17;99061.39;;;6.27;97.49
80620;BME280;69979;53.682;-2.690;2024-02-21T12:02:41;99045.51;;;6.67;96.84
80620;BME280;69979;53.682;-2.690;2024-02-21T12:05:07;99046.26;;;6.52;97.85
80620;BME280;69979;53.682;-2.690;2024-02-21T12:07:32;99035.35;;;6.15;97.45
80620;BME280;69979;53.682;-2.690;2024-02-21T12:09:59;99025.85;;;6.82;97.14
80620;BME280;69979;53.682;-2.690;2024-02-21T12:12:23;99030.61;;;7.29;95.05
80620;BME280;69979;53.682;-2.690;2024-02-21T12:14:54;99041.42;;;7.52;92.78
80620;BME280;69979;53.682;-2.690;2024-02-21T12:17:14;99036.96;;;7.46;93.21
80620;BME280;69979;53.682;-2.690;2024-02-21T12:19:40;99037.57;;;7.57;92.91
80620;BME280;69979;53.682;-2.690;2024-02-21T12:22:06;99035.29;;;7.58;91.57
80620;BME280;69979;53.682;-2.690;2024-02-21T12:24:31;99026.04;;;6.92;94.61
80620;BME280;69979;53.682;-2.690;2024-02-21T12:26:57;99026.44;;;7.30;95.27
80620;BME280;69979;53.682;-2.690;2024-02-21T12:29:23;99023.64;;;7.53;93.38
80620;BME280;69979;53.682;-2.690;2024-02-21T12:31:48;99022.16;;;7.84;92.74
80620;BME280;69979;53.682;-2.690;2024-02-21T12:34:14;99019.91;;;7.92;91.82
80620;BME280;69979;53.682;-2.690;2024-02-21T12:36:42;99023.91;;;7.71;93.16
80620;BME280;69979;53.682;-2.690;2024-02-21T12:39:05;99013.49;;;7.61;93.03
80620;BME280;69979;53.682;-2.690;2024-02-21T12:41:31;99013.19;;;7.77;94.73
80620;BME280;69979;53.682;-2.690;2024-02-21T12:43:56;99006.16;;;7.49;95.47
80620;BME280;69979;53.682;-2.690;2024-02-21T12:46:22;99008.67;;;7.51;95.49